createdAt,value
2023-03-22T00:00:02.143Z,8.28
2023-03-22T00:01:02.531Z,8.26
2023-03-22T00:02:04.005Z,8.23
2023-03-22T00:03:01.866Z,8.2
2023-03-22T00:04:02.322Z,8.16
2023-03-22T00:05:01.732Z,8.12
2023-03-22T00:06:02.184Z,8.07
2023-03-22T00:07:03.387Z,8.05
2023-03-22T00:08:02.183Z,8.03
2023-03-22T00:09:03.322Z,8.03
2023-03-22T00:10:02.138Z,8.03
2023-03-22T00:11:01.633Z,8.03
2023-03-22T00:12:02.111Z,8.01
2023-03-22T00:13:01.550Z,8.02
2023-03-22T00:14:02.039Z,8.02
2023-03-22T00:15:01.522Z,8.01
2023-03-22T00:16:01.986Z,8.01
2023-03-22T00:17:01.479Z,8
2023-03-22T00:18:01.956Z,7.97
2023-03-22T00:19:01.481Z,7.96
2023-03-22T00:20:01.926Z,7.93
2023-03-22T00:21:01.401Z,7.93
2023-03-22T00:22:01.874Z,7.91
2023-03-22T00:23:01.418Z,7.89
2023-03-22T00:24:01.789Z,7.88
2023-03-22T00:25:02.274Z,7.86
2023-03-22T00:26:03.493Z,7.84
2023-03-22T00:27:03.959Z,7.85
2023-03-22T00:28:01.719Z,7.87
2023-03-22T00:29:03.927Z,7.87
2023-03-22T00:30:01.719Z,7.86
2023-03-22T00:31:03.908Z,7.85
2023-03-22T00:32:01.630Z,7.85
2023-03-22T00:33:02.137Z,7.85
2023-03-22T00:34:03.317Z,7.85
2023-03-22T00:35:03.791Z,7.85
2023-03-22T00:36:01.594Z,7.85
2023-03-22T00:37:03.719Z,7.85
2023-03-22T00:38:01.553Z,7.83
2023-03-22T00:39:02.046Z,7.81
2023-03-22T00:40:01.481Z,7.78
2023-03-22T00:41:03.740Z,7.77
2023-03-22T00:42:01.496Z,7.77
2023-03-22T00:43:03.635Z,7.78
2023-03-22T00:44:01.414Z,7.79
2023-03-22T00:45:03.582Z,7.78
2023-03-22T00:46:01.420Z,7.77
2023-03-22T00:47:01.933Z,7.75
2023-03-22T00:48:03.038Z,7.73
2023-03-22T00:49:01.804Z,7.71
2023-03-22T00:51:01.821Z,7.67
2023-03-22T00:52:02.296Z,7.65
2023-03-22T00:53:03.475Z,7.63
2023-03-22T00:54:02.199Z,7.59
2023-03-22T00:55:01.734Z,7.53
2023-03-22T00:56:02.209Z,7.46
2023-03-22T00:57:01.725Z,7.43
2023-03-22T00:58:02.136Z,7.41
2023-03-22T00:59:01.652Z,7.42
2023-03-22T01:00:04.759Z,7.43
2023-03-22T01:01:01.525Z,7.45
2023-03-22T01:02:01.967Z,7.44
2023-03-22T01:03:01.397Z,7.43
2023-03-22T01:04:01.889Z,7.42
2023-03-22T01:05:01.426Z,7.44
2023-03-22T01:06:01.874Z,7.48
2023-03-22T01:07:03.008Z,7.5
2023-03-22T01:08:01.799Z,7.54
2023-03-22T01:09:02.320Z,7.56
2023-03-22T01:10:01.814Z,7.59
2023-03-22T01:11:03.899Z,7.59
2023-03-22T01:12:01.702Z,7.59
2023-03-22T01:13:02.195Z,7.58
2023-03-22T01:14:01.721Z,7.57
2023-03-22T01:15:02.202Z,7.56
2023-03-22T01:16:03.374Z,7.57
2023-03-22T01:17:03.790Z,7.56
2023-03-22T01:18:01.640Z,7.55
2023-03-22T01:19:02.123Z,7.53
2023-03-22T01:20:01.567Z,7.49
2023-03-22T01:21:02.040Z,7.45
2023-03-22T01:22:01.498Z,7.44
2023-03-22T01:23:01.964Z,7.43
2023-03-22T01:24:01.487Z,7.39
2023-03-22T01:25:01.987Z,7.37
2023-03-22T01:26:01.435Z,7.34
2023-03-22T01:27:01.888Z,7.32
2023-03-22T01:28:03.102Z,7.31
2023-03-22T01:29:01.867Z,7.3
2023-03-22T01:30:01.321Z,7.25
2023-03-22T01:31:01.960Z,7.2
2023-03-22T01:32:01.318Z,7.2
2023-03-22T01:33:01.791Z,7.19
2023-03-22T01:34:02.291Z,7.18
2023-03-22T01:35:01.718Z,7.15
2023-03-22T01:36:03.946Z,7.12
2023-03-22T01:37:01.709Z,7.1
2023-03-22T01:38:02.186Z,7.1
2023-03-22T01:39:03.338Z,7.09
2023-03-22T01:40:03.786Z,7.04
2023-03-22T01:41:01.635Z,6.97
2023-03-22T01:42:02.112Z,6.89
2023-03-22T01:43:01.550Z,6.86
2023-03-22T01:44:02.037Z,6.83
2023-03-22T01:45:01.586Z,6.82
2023-03-22T01:46:02.070Z,6.79
2023-03-22T01:47:01.470Z,6.73
2023-03-22T01:48:02.003Z,6.66
2023-03-22T01:49:01.418Z,6.59
2023-03-22T01:50:01.990Z,6.55
2023-03-22T01:51:01.410Z,6.5
2023-03-22T01:52:01.871Z,6.46
2023-03-22T01:53:01.407Z,6.45
2023-03-22T01:54:01.879Z,6.46
2023-03-22T01:55:01.313Z,6.45
2023-03-22T01:56:01.815Z,6.42
2023-03-22T01:57:02.279Z,6.39
2023-03-22T01:58:01.804Z,6.35
2023-03-22T01:59:03.956Z,6.33
2023-03-22T02:00:01.725Z,6.29
2023-03-22T02:01:01.611Z,6.29
2023-03-22T02:02:02.042Z,6.29
2023-03-22T02:03:01.488Z,6.26
2023-03-22T02:04:01.969Z,6.23
2023-03-22T02:05:01.489Z,6.2
2023-03-22T02:06:01.992Z,6.17
2023-03-22T02:07:01.418Z,6.15
2023-03-22T02:08:01.872Z,6.13
2023-03-22T02:09:02.995Z,6.13
2023-03-22T02:10:01.885Z,6.12
2023-03-22T02:11:02.293Z,6.1
2023-03-22T02:12:01.836Z,6.07
2023-03-22T02:13:02.273Z,6.02
2023-03-22T02:14:01.716Z,5.97
2023-03-22T02:15:02.213Z,5.92
2023-03-22T02:16:01.763Z,5.89
2023-03-22T02:17:02.223Z,5.86
2023-03-22T02:18:01.639Z,5.83
2023-03-22T02:19:02.121Z,5.8
2023-03-22T02:20:01.637Z,5.77
2023-03-22T02:21:03.786Z,5.75
2023-03-22T02:22:03.257Z,5.74
2023-03-22T02:23:02.029Z,5.74
2023-03-22T02:24:01.573Z,5.72
2023-03-22T02:25:02.029Z,5.71
2023-03-22T02:26:01.479Z,5.68
2023-03-22T02:27:01.956Z,5.65
2023-03-22T02:28:01.488Z,5.62
2023-03-22T02:29:03.547Z,5.57
2023-03-22T02:30:01.432Z,5.56
2023-03-22T02:31:01.906Z,5.55
2023-03-22T02:32:01.391Z,5.54
2023-03-22T02:33:01.912Z,5.54
2023-03-22T02:34:03.001Z,5.52
2023-03-22T02:35:01.813Z,5.51
2023-03-22T02:36:02.268Z,5.52
2023-03-22T02:37:01.806Z,5.54
2023-03-22T02:38:03.881Z,5.57
2023-03-22T02:39:01.725Z,5.63
2023-03-22T02:40:03.880Z,5.66
2023-03-22T02:41:01.714Z,5.66
2023-03-22T02:42:02.221Z,5.64
2023-03-22T02:43:01.650Z,5.62
2023-03-22T02:44:02.132Z,5.57
2023-03-22T02:45:01.639Z,5.53
2023-03-22T02:46:02.115Z,5.49
2023-03-22T02:47:01.558Z,5.49
2023-03-22T02:48:02.062Z,5.51
2023-03-22T02:49:01.554Z,5.53
2023-03-22T02:50:02.033Z,5.54
2023-03-22T02:51:01.473Z,5.53
2023-03-22T02:52:03.632Z,5.52
2023-03-22T02:53:01.490Z,5.53
2023-03-22T02:54:01.965Z,5.51
2023-03-22T02:55:03.084Z,5.49
2023-03-22T02:56:03.572Z,5.46
2023-03-22T02:57:03.001Z,5.4
2023-03-22T02:58:03.515Z,5.37
2023-03-22T02:59:02.274Z,5.35
2023-03-22T03:00:01.818Z,5.34
2023-03-22T03:01:02.326Z,5.33
2023-03-22T03:02:01.888Z,5.33
2023-03-22T03:03:03.962Z,5.35
2023-03-22T03:04:01.719Z,5.36
2023-03-22T03:05:03.879Z,5.38
2023-03-22T03:06:01.734Z,5.38
2023-03-22T03:07:02.204Z,5.37
2023-03-22T03:08:03.304Z,5.37
2023-03-22T03:09:03.789Z,5.36
2023-03-22T03:10:03.224Z,5.38
2023-03-22T03:11:02.025Z,5.4
2023-03-22T03:12:01.577Z,5.42
2023-03-22T03:13:02.042Z,5.46
2023-03-22T03:14:01.585Z,5.49
2023-03-22T03:15:01.951Z,5.5
2023-03-22T03:16:01.540Z,5.52
2023-03-22T03:17:01.961Z,5.56
2023-03-22T03:18:01.465Z,5.62
2023-03-22T03:19:01.878Z,5.64
2023-03-22T03:20:02.996Z,5.66
2023-03-22T03:21:01.802Z,5.68
2023-03-22T03:23:01.812Z,5.71
2023-03-22T03:24:02.270Z,5.75
2023-03-22T03:25:01.801Z,5.76
2023-03-22T03:26:03.961Z,5.77
2023-03-22T03:27:03.390Z,5.77
2023-03-22T03:28:02.214Z,5.77
2023-03-22T03:29:01.715Z,5.76
2023-03-22T03:30:02.196Z,5.76
2023-03-22T03:31:03.327Z,5.75
2023-03-22T03:32:02.109Z,5.72
2023-03-22T03:33:01.649Z,5.72
2023-03-22T03:34:02.143Z,5.74
2023-03-22T03:35:01.584Z,5.74
2023-03-22T03:36:02.058Z,5.71
2023-03-22T03:37:03.235Z,5.7
2023-03-22T03:38:02.039Z,5.69
2023-03-22T03:39:01.477Z,5.7
2023-03-22T03:40:03.642Z,5.69
2023-03-22T03:41:01.487Z,5.69
2023-03-22T03:42:01.964Z,5.67
2023-03-22T03:43:01.410Z,5.66
2023-03-22T03:44:01.877Z,5.66
2023-03-22T03:45:03.018Z,5.66
2023-03-22T03:46:01.832Z,5.64
2023-03-22T03:47:02.280Z,5.6
2023-03-22T03:48:01.880Z,5.57
2023-03-22T03:49:02.286Z,5.56
2023-03-22T03:50:01.721Z,5.55
2023-03-22T03:51:03.897Z,5.55
2023-03-22T03:52:01.763Z,5.55
2023-03-22T03:53:03.891Z,5.54
2023-03-22T03:54:01.636Z,5.55
2023-03-22T03:55:02.114Z,5.55
2023-03-22T03:56:03.345Z,5.56
2023-03-22T03:57:03.989Z,5.56
2023-03-22T03:58:01.571Z,5.57
2023-03-22T03:59:02.038Z,5.59
2023-03-22T04:00:01.578Z,5.6
2023-03-22T04:01:02.047Z,5.6
2023-03-22T04:02:01.541Z,5.59
2023-03-22T04:03:01.963Z,5.6
2023-03-22T04:04:03.223Z,5.63
2023-03-22T04:05:01.960Z,5.66
2023-03-22T04:06:03.066Z,5.7
2023-03-22T04:07:03.571Z,5.76
2023-03-22T04:08:01.402Z,5.82
2023-03-22T04:09:01.882Z,5.89
2023-03-22T04:10:01.314Z,5.94
2023-03-22T04:11:01.798Z,5.99
2023-03-22T04:13:01.816Z,6.2
2023-03-22T04:14:02.282Z,6.29
2023-03-22T04:15:01.728Z,6.38
2023-03-22T04:16:02.204Z,6.45
2023-03-22T04:17:01.790Z,6.52
2023-03-22T04:18:02.224Z,6.54
2023-03-22T04:19:01.718Z,6.56
2023-03-22T04:20:03.679Z,6.59
2023-03-22T04:21:01.640Z,6.6
2023-03-22T04:22:02.109Z,6.63
2023-03-22T04:23:01.651Z,6.66
2023-03-22T04:24:03.826Z,6.68
2023-03-22T04:25:01.570Z,6.7
2023-03-22T04:26:02.048Z,6.72
2023-03-22T04:27:03.205Z,6.74
2023-03-22T04:28:03.709Z,6.75
2023-03-22T04:29:01.472Z,6.75
2023-03-22T04:30:02.001Z,6.78
2023-03-22T04:31:03.222Z,6.78
2023-03-22T04:32:03.546Z,6.78
2023-03-22T04:33:01.429Z,6.81
2023-03-22T04:34:01.885Z,6.81
2023-03-22T04:35:01.350Z,6.79
2023-03-22T04:36:04.447Z,6.78
2023-03-22T04:37:02.279Z,6.79
2023-03-22T04:38:03.484Z,6.79
2023-03-22T04:39:02.285Z,6.79
2023-03-22T04:40:03.397Z,6.8
2023-03-22T04:41:02.202Z,6.82
2023-03-22T04:42:03.390Z,6.84
2023-03-22T04:43:02.185Z,6.87
2023-03-22T04:44:01.637Z,6.89
2023-03-22T04:45:02.242Z,6.93
2023-03-22T04:46:01.730Z,6.93
2023-03-22T04:47:03.788Z,6.91
2023-03-22T04:48:01.635Z,6.88
2023-03-22T04:49:02.037Z,6.84
2023-03-22T04:50:01.566Z,6.81
2023-03-22T04:51:02.051Z,6.78
2023-03-22T04:52:01.500Z,6.79
2023-03-22T04:53:01.967Z,6.81
2023-03-22T04:54:01.479Z,6.81
2023-03-22T04:55:01.944Z,6.82
2023-03-22T04:56:03.091Z,6.81
2023-03-22T04:57:01.959Z,6.81
2023-03-22T04:58:01.434Z,6.82
2023-03-22T04:59:01.881Z,6.84
2023-03-22T05:00:01.401Z,6.86
2023-03-22T05:01:01.882Z,6.88
2023-03-22T05:02:01.504Z,6.88
2023-03-22T05:03:01.823Z,6.88
2023-03-22T05:04:02.277Z,6.89
2023-03-22T05:05:01.836Z,6.9
2023-03-22T05:06:02.289Z,6.94
2023-03-22T05:07:03.404Z,6.95
2023-03-22T05:08:03.888Z,6.94
2023-03-22T05:09:01.715Z,6.89
2023-03-22T05:10:02.213Z,6.88
2023-03-22T05:11:03.312Z,6.86
2023-03-22T05:12:02.118Z,6.85
2023-03-22T05:13:03.330Z,6.83
2023-03-22T05:14:02.132Z,6.83
2023-03-22T05:15:03.220Z,6.84
2023-03-22T05:16:02.157Z,6.84
2023-03-22T05:17:01.554Z,6.84
2023-03-22T05:18:02.019Z,6.84
2023-03-22T05:19:01.568Z,6.85
2023-03-22T05:20:02.048Z,6.86
2023-03-22T05:21:03.152Z,6.88
2023-03-22T05:22:02.169Z,6.87
2023-03-22T05:23:01.476Z,6.86
2023-03-22T05:24:01.975Z,6.85
2023-03-22T05:25:01.407Z,6.85
2023-03-22T05:26:02.019Z,6.83
2023-03-22T05:27:01.405Z,6.83
2023-03-22T05:28:03.544Z,6.81
2023-03-22T05:29:03.090Z,6.78
2023-03-22T05:30:01.863Z,6.75
2023-03-22T05:31:01.315Z,6.73
2023-03-22T05:32:01.840Z,6.71
2023-03-22T05:33:02.272Z,6.69
2023-03-22T05:34:01.798Z,6.7
2023-03-22T05:35:02.290Z,6.69
2023-03-22T05:36:01.726Z,6.7
2023-03-22T05:37:02.257Z,6.72
2023-03-22T05:38:01.737Z,6.72
2023-03-22T05:39:02.200Z,6.73
2023-03-22T05:40:01.692Z,6.75
2023-03-22T05:41:02.132Z,6.79
2023-03-22T05:42:01.647Z,6.82
2023-03-22T05:43:02.154Z,6.82
2023-03-22T05:44:03.331Z,6.8
2023-03-22T05:45:02.106Z,6.76
2023-03-22T05:46:03.221Z,6.74
2023-03-22T05:47:02.287Z,6.73
2023-03-22T05:48:01.612Z,6.71
2023-03-22T05:49:02.058Z,6.68
2023-03-22T05:50:01.552Z,6.66
2023-03-22T05:51:02.044Z,6.63
2023-03-22T05:52:01.478Z,6.63
2023-03-22T05:53:01.962Z,6.63
2023-03-22T05:54:01.481Z,6.64
2023-03-22T05:55:01.961Z,6.67
2023-03-22T05:56:01.419Z,6.68
2023-03-22T05:57:01.992Z,6.68
2023-03-22T05:58:01.399Z,6.67
2023-03-22T05:59:01.886Z,6.68
2023-03-22T06:00:03.085Z,6.68
2023-03-22T06:01:01.888Z,6.67
2023-03-22T06:02:01.441Z,6.68
2023-03-22T06:03:01.895Z,6.7
2023-03-22T06:04:03.040Z,6.74
2023-03-22T06:05:01.805Z,6.79
2023-03-22T06:06:02.285Z,6.85
2023-03-22T06:07:01.796Z,6.91
2023-03-22T06:08:02.285Z,6.95
2023-03-22T06:09:16.048Z,6.99
2023-03-22T06:10:03.926Z,7.01
2023-03-22T06:11:03.392Z,7.03
2023-03-22T06:12:02.117Z,7.05
2023-03-22T06:13:01.670Z,7.08
2023-03-22T06:14:02.120Z,7.11
2023-03-22T06:15:01.569Z,7.12
2023-03-22T06:16:02.093Z,7.14
2023-03-22T06:17:01.498Z,7.14
2023-03-22T06:18:03.648Z,7.14
2023-03-22T06:19:01.500Z,7.15
2023-03-22T06:20:03.645Z,7.16
2023-03-22T06:21:01.412Z,7.19
2023-03-22T06:22:01.973Z,7.19
2023-03-22T06:23:01.394Z,7.19
2023-03-22T06:24:01.886Z,7.2
2023-03-22T06:25:03.026Z,7.19
2023-03-22T06:26:01.812Z,7.2
2023-03-22T06:27:02.311Z,7.22
2023-03-22T06:28:03.491Z,7.22
2023-03-22T06:29:02.292Z,7.22
2023-03-22T06:30:03.398Z,7.22
2023-03-22T06:31:04.028Z,7.2
2023-03-22T06:32:01.750Z,7.19
2023-03-22T06:33:03.919Z,7.18
2023-03-22T06:34:01.646Z,7.17
2023-03-22T06:35:02.127Z,7.17
2023-03-22T06:36:01.640Z,7.15
2023-03-22T06:37:02.143Z,7.15
2023-03-22T06:38:01.566Z,7.16
2023-03-22T06:39:02.074Z,7.17
2023-03-22T06:40:01.570Z,7.17
2023-03-22T06:41:02.057Z,7.18
2023-03-22T06:42:01.482Z,7.19
2023-03-22T06:43:05.110Z,7.2
2023-03-22T06:44:01.512Z,7.22
2023-03-22T06:45:01.967Z,7.22
2023-03-22T06:46:01.457Z,7.24
2023-03-22T06:47:01.904Z,7.26
2023-03-22T06:48:01.609Z,7.28
2023-03-22T06:49:01.917Z,7.29
2023-03-22T06:50:03.001Z,7.32
2023-03-22T06:51:01.807Z,7.33
2023-03-22T06:52:02.293Z,7.38
2023-03-22T06:53:01.736Z,7.43
2023-03-22T06:54:02.229Z,7.46
2023-03-22T06:55:01.738Z,7.49
2023-03-22T06:56:03.886Z,7.55
2023-03-22T06:57:03.327Z,7.59
2023-03-22T06:58:03.806Z,7.62
2023-03-22T06:59:03.347Z,7.67
2023-03-22T07:00:02.119Z,7.7
2023-03-22T07:01:01.587Z,7.73
2023-03-22T07:02:03.729Z,7.78
2023-03-22T07:03:03.164Z,7.83
2023-03-22T07:04:02.156Z,7.88
2023-03-22T07:05:01.501Z,7.92
2023-03-22T07:06:01.979Z,7.98
2023-03-22T07:07:01.488Z,8.06
2023-03-22T07:08:01.894Z,8.13
2023-03-22T07:09:01.403Z,8.21
2023-03-22T07:10:01.897Z,8.32
2023-03-22T07:11:01.345Z,8.44
2023-03-22T07:12:01.805Z,8.56
2023-03-22T07:14:03.491Z,8.77
2023-03-22T07:15:02.284Z,8.86
2023-03-22T07:16:01.876Z,8.94
2023-03-22T07:17:03.989Z,8.94
2023-03-22T07:18:01.746Z,8.95
2023-03-22T07:19:02.211Z,9.05
2023-03-22T07:20:01.661Z,9.16
2023-03-22T07:21:02.208Z,9.3
2023-03-22T07:22:01.673Z,9.4
2023-03-22T07:23:02.138Z,9.46
2023-03-22T07:24:01.651Z,9.5
2023-03-22T07:25:03.805Z,9.56
2023-03-22T07:26:01.576Z,9.59
2023-03-22T07:27:02.046Z,9.68
2023-03-22T07:28:01.586Z,9.77
2023-03-22T07:29:02.049Z,9.8
2023-03-22T07:30:01.483Z,9.88
2023-03-22T07:31:01.954Z,9.92
2023-03-22T07:32:01.543Z,10.03
2023-03-22T07:33:01.971Z,10.1
2023-03-22T07:34:01.404Z,10.16
2023-03-22T07:35:01.880Z,10.25
2023-03-22T07:36:01.444Z,10.33
2023-03-22T07:37:01.877Z,10.36
2023-03-22T07:38:01.374Z,10.46
2023-03-22T07:39:01.809Z,10.5
2023-03-22T07:40:02.315Z,10.57
2023-03-22T07:41:01.791Z,10.6
2023-03-22T07:42:02.268Z,10.67
2023-03-22T07:43:01.728Z,10.78
2023-03-22T07:44:16.908Z,10.85
2023-03-22T07:45:03.510Z,10.95
2023-03-22T07:46:02.198Z,11.04
2023-03-22T07:47:01.656Z,11.17
2023-03-22T07:48:02.184Z,11.25
2023-03-22T07:49:01.645Z,11.3
2023-03-22T07:50:02.134Z,11.34
2023-03-22T07:51:01.550Z,11.36
2023-03-22T07:52:02.118Z,11.33
2023-03-22T07:53:01.556Z,11.37
2023-03-22T07:54:02.060Z,11.34
2023-03-22T07:55:01.496Z,11.3
2023-03-22T07:56:01.949Z,11.32
2023-03-22T07:57:01.515Z,11.31
2023-03-22T07:58:03.633Z,11.34
2023-03-22T07:59:01.484Z,11.37
2023-03-22T08:00:03.550Z,11.41
2023-03-22T08:01:01.431Z,11.48
2023-03-22T08:02:03.605Z,11.53
2023-03-22T08:03:02.369Z,11.62
2023-03-22T08:04:01.820Z,11.7
2023-03-22T08:05:02.291Z,11.77
2023-03-22T08:06:01.774Z,11.84
2023-03-22T08:07:02.224Z,11.92
2023-03-22T08:08:01.731Z,12
2023-03-22T08:09:04.056Z,12.07
2023-03-22T08:10:03.323Z,12.12
2023-03-22T08:11:02.158Z,12.15
2023-03-22T08:12:01.648Z,12.16
2023-03-22T08:13:03.799Z,12.18
2023-03-22T08:14:01.552Z,12.21
2023-03-22T08:15:02.053Z,12.29
2023-03-22T08:16:03.542Z,12.35
2023-03-22T08:17:03.726Z,12.4
2023-03-22T08:18:01.494Z,12.45
2023-03-22T08:19:01.968Z,12.5
2023-03-22T08:20:01.506Z,12.52
2023-03-22T08:21:01.969Z,12.52
2023-03-22T08:22:03.089Z,12.53
2023-03-22T08:23:01.905Z,12.6
2023-03-22T08:24:01.424Z,12.57
2023-03-22T08:25:03.482Z,12.57
2023-03-22T08:26:03.007Z,12.57
2023-03-22T08:27:01.830Z,12.59
2023-03-22T08:28:02.342Z,12.6
2023-03-22T08:29:01.741Z,12.6
2023-03-22T08:30:03.896Z,12.59
2023-03-22T08:31:01.729Z,12.6
2023-03-22T08:32:02.341Z,12.6
2023-03-22T08:33:01.638Z,12.6
2023-03-22T08:34:02.146Z,12.63
2023-03-22T08:35:01.653Z,12.69
2023-03-22T08:36:03.805Z,12.72
2023-03-22T08:37:03.253Z,12.73
2023-03-22T08:38:02.050Z,12.73
2023-03-22T08:39:01.575Z,12.71
2023-03-22T08:40:03.757Z,12.67
2023-03-22T08:41:01.501Z,12.63
2023-03-22T08:42:01.986Z,12.6
2023-03-22T08:43:01.511Z,12.6
2023-03-22T08:44:01.883Z,12.6
2023-03-22T08:45:01.406Z,12.64
2023-03-22T08:46:01.939Z,12.64
2023-03-22T08:47:03.061Z,12.67
2023-03-22T08:48:01.828Z,12.71
2023-03-22T08:49:01.323Z,12.74
2023-03-22T08:50:01.818Z,12.77
2023-03-22T08:51:03.981Z,12.81
2023-03-22T08:52:01.791Z,12.88
2023-03-22T08:53:03.967Z,12.93
2023-03-22T08:54:01.721Z,12.96
2023-03-22T08:55:02.207Z,12.99
2023-03-22T08:56:03.333Z,13.02
2023-03-22T08:57:02.111Z,13.05
2023-03-22T08:58:03.317Z,13.11
2023-03-22T08:59:03.818Z,13.19
2023-03-22T09:00:01.562Z,13.26
2023-03-22T09:01:02.148Z,13.33
2023-03-22T09:02:03.327Z,13.4
2023-03-22T09:03:02.041Z,13.5
2023-03-22T09:04:01.525Z,13.64
2023-03-22T09:05:01.976Z,13.71
2023-03-22T09:06:01.487Z,13.81
2023-03-22T09:07:01.968Z,13.91
2023-03-22T09:08:06.301Z,14.03
2023-03-22T09:09:03.556Z,14.03
2023-03-22T09:10:01.323Z,13.95
2023-03-22T09:11:01.797Z,13.91
2023-03-22T09:12:02.267Z,13.88
2023-03-22T09:13:01.802Z,13.82
2023-03-22T09:14:02.292Z,13.77
2023-03-22T09:15:01.744Z,13.73
2023-03-22T09:16:02.250Z,13.79
2023-03-22T09:17:01.726Z,13.82
2023-03-22T09:18:02.207Z,13.76
2023-03-22T09:19:03.317Z,13.69
2023-03-22T09:20:12.016Z,13.74
2023-03-22T09:21:01.658Z,13.75
2023-03-22T09:22:02.119Z,13.7
2023-03-22T09:23:03.233Z,13.66
2023-03-22T09:24:02.034Z,13.64
2023-03-22T09:25:01.570Z,13.67
2023-03-22T09:26:02.069Z,13.76
2023-03-22T09:27:01.556Z,13.82
2023-03-22T09:28:02.026Z,13.97
2023-03-22T09:29:03.153Z,13.98
2023-03-22T09:30:01.960Z,13.85
2023-03-22T09:31:01.527Z,13.73
2023-03-22T09:32:01.955Z,13.58
2023-03-22T09:33:01.519Z,13.48
2023-03-22T09:34:01.864Z,13.45
2023-03-22T09:35:01.414Z,13.43
2023-03-22T09:36:03.717Z,13.51
2023-03-22T09:37:01.332Z,13.6
2023-03-22T09:38:01.801Z,13.63
2023-03-22T09:40:03.466Z,13.74
2023-03-22T09:41:02.283Z,13.79
2023-03-22T09:42:03.495Z,13.93
2023-03-22T09:43:02.270Z,14
2023-03-22T09:44:03.393Z,14.08
2023-03-22T09:45:02.197Z,14.13
2023-03-22T09:46:03.344Z,14.25
2023-03-22T09:47:02.224Z,14.42
2023-03-22T09:48:01.717Z,14.47
2023-03-22T09:49:03.794Z,14.59
2023-03-22T09:50:01.562Z,14.74
2023-03-22T09:51:03.706Z,14.95
2023-03-22T09:52:01.585Z,15.08
2023-03-22T09:53:02.051Z,15.14
2023-03-22T09:54:01.480Z,15.17
2023-03-22T09:55:03.681Z,15.21
2023-03-22T09:56:03.192Z,15.18
2023-03-22T09:57:03.572Z,15.21
2023-03-22T09:58:01.436Z,15.3
2023-03-22T09:59:01.893Z,15.43
2023-03-22T10:00:01.332Z,15.53
2023-03-22T10:01:01.933Z,15.57
2023-03-22T10:03:03.502Z,15.24
2023-03-22T10:04:02.340Z,15.07
2023-03-22T10:05:01.731Z,14.98
2023-03-22T10:06:02.302Z,14.88
2023-03-22T10:07:03.386Z,14.71
2023-03-22T10:08:03.875Z,14.59
2023-03-22T10:09:01.734Z,14.59
2023-03-22T10:10:02.229Z,14.65
2023-03-22T10:11:03.331Z,14.71
2023-03-22T10:12:02.134Z,14.67
2023-03-22T10:13:01.570Z,14.6
2023-03-22T10:14:02.047Z,14.53
2023-03-22T10:15:03.226Z,14.43
2023-03-22T10:16:03.724Z,14.39
2023-03-22T10:17:03.175Z,14.44
2023-03-22T10:18:01.960Z,14.53
2023-03-22T10:19:01.469Z,14.62
2023-03-22T10:20:01.950Z,14.69
2023-03-22T10:21:01.433Z,14.8
2023-03-22T10:22:03.570Z,14.89
2023-03-22T10:23:01.473Z,14.89
2023-03-22T10:24:03.579Z,14.86
2023-03-22T10:25:01.311Z,14.71
2023-03-22T10:26:01.799Z,14.58
2023-03-22T10:27:02.295Z,14.51
2023-03-22T10:28:01.797Z,14.44
2023-03-22T10:29:03.765Z,14.44
2023-03-22T10:30:03.401Z,14.51
2023-03-22T10:31:05.238Z,14.59
2023-03-22T10:32:01.710Z,14.64
2023-03-22T10:33:02.212Z,14.7
2023-03-22T10:34:01.638Z,14.86
2023-03-22T10:35:02.196Z,14.98
2023-03-22T10:36:01.686Z,15.15
2023-03-22T10:37:03.793Z,15.27
2023-03-22T10:38:03.234Z,15.38
2023-03-22T10:39:02.040Z,15.38
2023-03-22T10:40:01.567Z,15.36
2023-03-22T10:41:03.736Z,15.34
2023-03-22T10:42:03.143Z,15.43
2023-03-22T10:43:02.034Z,15.47
2023-03-22T10:44:01.466Z,15.56
2023-03-22T10:45:03.658Z,15.68
2023-03-22T10:46:01.392Z,15.76
2023-03-22T10:47:03.641Z,15.84
2023-03-22T10:48:01.529Z,15.89
2023-03-22T10:49:01.886Z,15.84
2023-03-22T10:50:01.315Z,15.84
2023-03-22T10:51:01.812Z,15.86
2023-03-22T10:53:01.857Z,15.75
2023-03-22T10:54:02.321Z,15.68
2023-03-22T10:55:04.467Z,15.62
2023-03-22T10:56:02.308Z,15.62
2023-03-22T10:57:01.729Z,15.6
2023-03-22T10:58:02.210Z,15.55
2023-03-22T10:59:03.395Z,15.69
2023-03-22T11:00:02.201Z,15.82
2023-03-22T11:01:01.759Z,15.78
2023-03-22T11:02:03.915Z,15.84
2023-03-22T11:03:03.442Z,15.91
2023-03-22T11:04:02.133Z,15.92
2023-03-22T11:05:01.579Z,15.93
2023-03-22T11:06:02.052Z,15.99
2023-03-22T11:07:01.564Z,16.15
2023-03-22T11:08:02.029Z,16.31
2023-03-22T11:09:01.504Z,16.41
2023-03-22T11:10:02.003Z,16.49
2023-03-22T11:11:01.479Z,16.39
2023-03-22T11:12:01.964Z,16.22
2023-03-22T11:13:01.578Z,16.13
2023-03-22T11:14:02.020Z,16.16
2023-03-22T11:15:01.395Z,16.26
2023-03-22T11:16:02.005Z,16.29
2023-03-22T11:17:01.439Z,16.26
2023-03-22T11:18:03.570Z,16.07
2023-03-22T11:19:01.303Z,15.91
2023-03-22T11:20:01.965Z,15.71
2023-03-22T11:21:01.318Z,15.57
2023-03-22T11:22:01.796Z,15.45
2023-03-22T11:23:02.262Z,15.46
2023-03-22T11:24:01.814Z,15.51
2023-03-22T11:25:03.945Z,15.57
2023-03-22T11:26:01.721Z,15.65
2023-03-22T11:27:02.200Z,15.8
2023-03-22T11:28:03.387Z,15.9
2023-03-22T11:29:02.209Z,16.04
2023-03-22T11:30:01.711Z,16.18
2023-03-22T11:31:02.206Z,16.2
2023-03-22T11:32:01.759Z,16.19
2023-03-22T11:33:03.864Z,16.3
2023-03-22T11:34:01.588Z,16.43
2023-03-22T11:35:02.029Z,16.41
2023-03-22T11:36:01.581Z,16.37
2023-03-22T11:37:02.051Z,16.33
2023-03-22T11:38:03.255Z,16.26
2023-03-22T11:39:02.033Z,16.22
2023-03-22T11:40:01.517Z,16.16
2023-03-22T11:41:01.991Z,16.14
2023-03-22T11:42:03.149Z,16.18
2023-03-22T11:43:01.884Z,16.22
2023-03-22T11:44:01.411Z,16.29
2023-03-22T11:45:01.905Z,16.28
2023-03-22T11:46:01.427Z,16.35
2023-03-22T11:47:01.928Z,16.31
2023-03-22T11:48:01.640Z,16.2
2023-03-22T11:49:03.548Z,16.14
2023-03-22T11:50:03.949Z,16.11
2023-03-22T11:51:01.791Z,16.08
2023-03-22T11:52:04.206Z,16.14
2023-03-22T11:53:01.715Z,16.18
2023-03-22T11:54:02.205Z,16.29
2023-03-22T11:55:01.721Z,16.37
2023-03-22T11:56:03.863Z,16.45
2023-03-22T11:57:01.762Z,16.45
2023-03-22T11:58:02.205Z,16.4
2023-03-22T11:59:01.657Z,16.29
2023-03-22T12:00:03.781Z,16.21
2023-03-22T12:01:03.240Z,16.14
2023-03-22T12:02:02.055Z,16.16
2023-03-22T12:03:01.630Z,16.21
2023-03-22T12:04:02.104Z,16.22
2023-03-22T12:05:01.548Z,16.17
2023-03-22T12:06:01.984Z,16.13
2023-03-22T12:07:03.214Z,16.06
2023-03-22T12:08:01.976Z,16
2023-03-22T12:09:01.417Z,15.95
2023-03-22T12:10:01.886Z,15.92
2023-03-22T12:11:01.358Z,15.91
2023-03-22T12:12:01.873Z,15.88
2023-03-22T12:14:01.802Z,15.83
2023-03-22T12:15:02.302Z,15.82
2023-03-22T12:16:01.845Z,15.81
2023-03-22T12:17:02.309Z,15.76
2023-03-22T12:18:01.791Z,15.76
2023-03-22T12:19:02.188Z,15.8
2023-03-22T12:20:01.720Z,15.81
2023-03-22T12:21:02.210Z,15.82
2023-03-22T12:22:01.666Z,15.87
2023-03-22T12:23:02.132Z,15.89
2023-03-22T12:24:03.365Z,15.97
2023-03-22T12:25:02.125Z,16.02
2023-03-22T12:26:01.644Z,16.11
2023-03-22T12:27:03.714Z,16.21
2023-03-22T12:28:01.555Z,16.36
2023-03-22T12:29:02.040Z,16.5
2023-03-22T12:30:01.514Z,16.64
2023-03-22T12:31:01.990Z,16.8
2023-03-22T12:32:03.080Z,16.94
2023-03-22T12:33:03.594Z,17.04
2023-03-22T12:34:01.399Z,17.05
2023-03-22T12:35:18.044Z,16.99
2023-03-22T12:36:01.349Z,16.9
2023-03-22T12:37:01.800Z,16.78
2023-03-22T12:38:03.988Z,16.7
2023-03-22T12:39:03.492Z,16.56
2023-03-22T12:40:03.962Z,16.49
2023-03-22T12:41:01.729Z,16.41
2023-03-22T12:42:03.874Z,16.4
2023-03-22T12:43:01.729Z,16.42
2023-03-22T12:44:03.899Z,16.45
2023-03-22T12:45:05.016Z,16.51
2023-03-22T12:46:02.128Z,16.69
2023-03-22T12:47:01.608Z,16.85
2023-03-22T12:48:02.162Z,16.86
2023-03-22T12:49:01.598Z,16.89
2023-03-22T12:50:02.055Z,16.88
2023-03-22T12:51:03.244Z,16.85
2023-03-22T12:52:02.035Z,16.75
2023-03-22T12:53:01.479Z,16.7
2023-03-22T12:54:02.894Z,16.61
2023-03-22T12:55:03.341Z,16.61
2023-03-22T12:56:02.117Z,16.7
2023-03-22T12:57:01.560Z,16.73
2023-03-22T12:58:03.824Z,16.77
2023-03-22T12:59:01.553Z,16.81
2023-03-22T13:00:02.038Z,16.81
2023-03-22T13:01:03.180Z,16.81
2023-03-22T13:02:01.953Z,16.78
2023-03-22T13:03:01.610Z,16.76
2023-03-22T13:04:03.726Z,16.65
2023-03-22T13:05:03.076Z,16.56
2023-03-22T13:06:01.886Z,16.43
2023-03-22T13:07:01.399Z,16.3
2023-03-22T13:08:03.601Z,16.17
2023-03-22T13:09:01.555Z,16.08
2023-03-22T13:10:01.820Z,16.03
2023-03-22T13:11:02.282Z,15.97
2023-03-22T13:12:03.480Z,15.88
2023-03-22T13:13:02.280Z,15.8
2023-03-22T13:14:01.756Z,15.75
2023-03-22T13:15:02.212Z,15.69
2023-03-22T13:16:03.368Z,15.66
2023-03-22T13:17:02.246Z,15.63
2023-03-22T13:18:01.682Z,15.61